Time;durP1;ratioP1;P1;durP2;ratioP2;P2;SDS_P1;SDS_P2;PMS_P1;PMS_P2;Temp;Humidity;BMP_temperature;BMP_pressure;BME280_temperature;BME280_humidity;BME280_pressure;Samples;Min_cycle;Max_cycle;Signal;HPM_P1;HPM_P2
2023/06/30 03:03:20;;;;;;;3.22;2.53;;;27.10;44.10;;;;;;4929540;28;47552;-60
2023/06/30 03:05:46;;;;;;;3.95;2.58;;;27.00;43.90;;;;;;4982421;28;46033;-59
2023/06/30 03:08:11;;;;;;;2.97;2.38;;;27.00;43.90;;;;;;4992275;28;45588;-59
2023/06/30 03:10:37;;;;;;;2.55;2.35;;;27.00;43.90;;;;;;4986710;28;45480;-61
2023/06/30 03:13:03;;;;;;;7.97;2.30;;;27.10;44.00;;;;;;4990506;28;45620;-60
2023/06/30 03:15:28;;;;;;;2.83;2.47;;;27.00;44.00;;;;;;4978183;28;46500;-62
2023/06/30 03:17:55;;;;;;;2.25;2.05;;;27.00;44.00;;;;;;4986896;28;45586;-59
2023/06/30 03:20:21;;;;;;;2.75;2.55;;;27.00;44.00;;;;;;4979510;28;46854;-63
2023/06/30 03:22:46;;;;;;;3.60;2.70;;;27.00;43.90;;;;;;4957958;28;46553;-60
2023/06/30 03:25:12;;;;;;;2.88;2.25;;;27.00;43.90;;;;;;4979923;28;45955;-65
2023/06/30 03:27:38;;;;;;;3.47;2.63;;;27.00;43.90;;;;;;4988170;28;45367;-59
2023/06/30 03:30:04;;;;;;;2.72;2.42;;;27.00;44.10;;;;;;4985048;28;46166;-63
2023/06/30 03:32:30;;;;;;;4.18;2.47;;;27.00;44.10;;;;;;4978612;28;45361;-60
2023/06/30 03:34:56;;;;;;;2.65;2.20;;;27.00;44.10;;;;;;4988414;28;45327;-56
2023/06/30 03:37:22;;;;;;;4.10;2.67;;;27.00;44.10;;;;;;4961904;28;46510;-62
2023/06/30 03:39:47;;;;;;;3.05;2.20;;;27.00;44.10;;;;;;4987372;28;45679;-60
2023/06/30 03:42:13;;;;;;;3.45;2.40;;;27.00;44.10;;;;;;4982518;28;45214;-58
2023/06/30 03:44:38;;;;;;;3.25;2.55;;;27.00;44.00;;;;;;4987610;28;45926;-60
2023/06/30 03:47:04;;;;;;;3.45;2.30;;;27.00;44.10;;;;;;4978715;28;44782;-62
2023/06/30 03:49:30;;;;;;;5.85;2.65;;;27.00;44.20;;;;;;4984728;28;45524;-61
2023/06/30 03:51:55;;;;;;;3.30;2.38;;;27.00;44.20;;;;;;4981810;28;45711;-59
2023/06/30 03:54:21;;;;;;;3.53;2.33;;;27.00;44.10;;;;;;4987230;28;45973;-59
2023/06/30 03:56:47;;;;;;;4.03;2.50;;;27.00;44.10;;;;;;4982597;28;45286;-60
2023/06/30 03:59:12;;;;;;;4.22;2.80;;;26.90;44.10;;;;;;4982208;28;45664;-64
2023/06/30 04:01:39;;;;;;;3.92;2.50;;;26.90;44.80;;;;;;4966121;28;44848;-60
2023/06/30 04:04:05;;;;;;;3.35;2.38;;;26.90;44.20;;;;;;4972090;28;46053;-59
2023/06/30 04:06:33;;;;;;;3.53;2.72;;;26.90;44.30;;;;;;4966767;28;45405;-61
2023/06/30 04:08:59;;;;;;;5.38;3.30;;;26.90;44.30;;;;;;4971196;28;45603;-61
2023/06/30 04:11:24;;;;;;;4.72;2.50;;;26.90;45.00;;;;;;4964094;28;45250;-61
2023/06/30 04:13:50;;;;;;;4.65;2.53;;;26.90;44.50;;;;;;4974417;28;44869;-61
2023/06/30 04:16:17;;;;;;;3.10;2.60;;;26.90;44.50;;;;;;4961734;28;45646;-60
2023/06/30 04:18:43;;;;;;;3.72;2.58;;;26.90;44.50;;;;;;4963233;28;45292;-62
2023/06/30 04:21:08;;;;;;;2.85;2.22;;;26.90;44.50;;;;;;4966178;28;45635;-60
2023/06/30 04:23:34;;;;;;;3.42;2.22;;;26.90;44.40;;;;;;4968222;28;45420;-61
2023/06/30 04:26:00;;;;;;;3.72;2.53;;;26.90;44.50;;;;;;4968570;28;45608;-60
2023/06/30 04:28:26;;;;;;;6.05;2.60;;;26.80;44.40;;;;;;4971476;28;45244;-61
2023/06/30 04:30:52;;;;;;;3.00;2.38;;;26.80;44.50;;;;;;4956990;28;45711;-61
2023/06/30 04:33:17;;;;;;;4.35;1.98;;;26.90;44.40;;;;;;4966025;28;46764;-60
2023/06/30 04:35:46;;;;;;;2.78;2.42;;;26.90;44.30;;;;;;4967877;28;45641;-60
2023/06/30 04:38:11;;;;;;;4.65;2.42;;;26.90;44.40;;;;;;4991478;28;44729;-61
2023/06/30 04:40:37;;;;;;;3.60;2.70;;;26.90;44.40;;;;;;4979970;28;45269;-60
2023/06/30 04:43:11;;;;;;;2.97;2.45;;;26.90;44.50;;;;;;4989889;28;45308;-61
2023/06/30 04:45:36;;;;;;;3.40;2.65;;;26.90;44.60;;;;;;4979549;28;46226;-59
2023/06/30 04:48:02;;;;;;;3.97;2.90;;;26.90;44.60;;;;;;4987939;28;45872;-61
2023/06/30 04:50:27;;;;;;;5.30;3.03;;;26.90;44.60;;;;;;4980376;28;44716;-62
2023/06/30 04:52:53;;;;;;;3.67;2.17;;;26.90;44.60;;;;;;4990130;28;46217;-61
2023/06/30 04:55:18;;;;;;;4.65;3.53;;;26.90;44.60;;;;;;4986369;28;45850;-63
2023/06/30 04:57:44;;;;;;;4.50;3.10;;;26.90;44.80;;;;;;4990185;28;44688;-58
2023/06/30 05:00:10;;;;;;;4.70;3.47;;;26.90;44.70;;;;;;4985979;28;44794;-64
2023/06/30 05:02:36;;;;;;;5.97;3.13;;;26.90;44.80;;;;;;4997971;28;45961;-60
2023/06/30 05:05:01;;;;;;;3.78;3.15;;;26.90;44.70;;;;;;5001869;28;46217;-61
2023/06/30 05:07:30;;;;;;;3.85;3.35;;;26.90;44.70;;;;;;5002765;28;46742;-61
2023/06/30 05:09:56;;;;;;;4.10;3.25;;;26.90;44.70;;;;;;5006845;28;46284;-61
2023/06/30 05:12:21;;;;;;;3.42;2.78;;;26.90;44.60;;;;;;5001106;28;46708;-60
2023/06/30 05:14:48;;;;;;;3.47;2.75;;;26.90;44.70;;;;;;5007074;28;44761;-62
2023/06/30 05:17:14;;;;;;;4.25;3.08;;;26.90;44.60;;;;;;4996205;28;45865;-59
2023/06/30 05:19:40;;;;;;;3.92;2.88;;;26.90;44.70;;;;;;5004228;28;45754;-61
2023/06/30 05:22:06;;;;;;;4.28;2.97;;;26.90;44.60;;;;;;5002728;28;45934;-60
2023/06/30 05:24:33;;;;;;;4.97;3.08;;;26.90;44.60;;;;;;5005155;28;46202;-59
2023/06/30 05:26:59;;;;;;;4.40;2.72;;;26.90;44.80;;;;;;4997994;28;45588;-61
2023/06/30 05:29:24;;;;;;;4.53;2.92;;;26.90;45.00;;;;;;4985062;28;45530;-61
2023/06/30 05:31:50;;;;;;;3.65;2.75;;;26.90;44.90;;;;;;4995470;28;45903;-60
2023/06/30 05:34:15;;;;;;;4.72;3.13;;;26.90;44.90;;;;;;5002605;28;45681;-60
2023/06/30 05:36:44;;;;;;;5.43;3.20;;;26.90;44.90;;;;;;4997465;28;45378;-61
2023/06/30 05:39:10;;;;;;;4.32;2.80;;;26.90;45.00;;;;;;4999155;28;45613;-61
2023/06/30 05:41:36;;;;;;;3.75;3.10;;;26.90;45.00;;;;;;4997810;28;46429;-60
2023/06/30 05:44:01;;;;;;;4.03;3.40;;;26.90;45.00;;;;;;5005844;28;45513;-61
2023/06/30 05:46:27;;;;;;;3.10;2.80;;;26.90;45.00;;;;;;4993675;28;45781;-63
2023/06/30 05:48:53;;;;;;;4.65;2.95;;;26.90;45.00;;;;;;4988238;28;45951;-60
2023/06/30 05:51:18;;;;;;;3.72;2.90;;;26.90;45.00;;;;;;4998761;28;45958;-62
2023/06/30 05:53:44;;;;;;;3.88;2.90;;;26.90;45.10;;;;;;5007644;28;45379;-58
2023/06/30 05:56:09;;;;;;;3.70;2.97;;;26.90;45.10;;;;;;4982597;28;45608;-64
2023/06/30 05:58:37;;;;;;;4.88;3.80;;;26.90;45.10;;;;;;5003692;28;45593;-57
2023/06/30 06:01:03;;;;;;;3.95;3.33;;;26.90;45.20;;;;;;4996894;28;45263;-57
2023/06/30 06:03:30;;;;;;;8.40;3.67;;;26.90;45.20;;;;;;5001351;28;46671;-57
2023/06/30 06:05:56;;;;;;;5.07;3.60;;;26.90;45.20;;;;;;5002409;28;44667;-58
2023/06/30 06:08:22;;;;;;;5.25;3.53;;;26.90;45.30;;;;;;5006745;28;45249;-58
2023/06/30 06:10:48;;;;;;;6.65;3.50;;;26.90;45.30;;;;;;5001908;28;46299;-55
2023/06/30 06:13:35;;;;;;;5.45;3.20;;;27.00;45.50;;;;;;4987642;28;45549;-57
2023/06/30 06:16:01;;;;;;;5.82;3.70;;;27.00;46.00;;;;;;4996226;28;45236;-55
2023/06/30 06:18:27;;;;;;;4.38;3.53;;;27.00;45.40;;;;;;5004100;28;45656;-57
2023/06/30 06:20:52;;;;;;;4.00;3.33;;;27.10;45.30;;;;;;5000772;28;45442;-56
2023/06/30 06:23:18;;;;;;;3.28;2.97;;;27.20;45.20;;;;;;4986488;28;45533;-52
2023/06/30 06:25:43;;;;;;;3.63;3.25;;;27.20;45.10;;;;;;5000650;28;45218;-56
2023/06/30 06:28:09;;;;;;;5.15;3.00;;;27.30;44.90;;;;;;5006435;28;45633;-58
2023/06/30 06:30:34;;;;;;;4.68;3.30;;;27.50;44.80;;;;;;4997398;28;45926;-56
2023/06/30 06:33:00;;;;;;;5.05;3.20;;;27.50;44.70;;;;;;5004800;28;45286;-55
2023/06/30 06:35:25;;;;;;;5.90;3.47;;;27.60;44.60;;;;;;4997226;28;46108;-56
2023/06/30 06:37:51;;;;;;;5.32;3.42;;;27.60;44.50;;;;;;4987197;28;45513;-56
2023/06/30 06:40:16;;;;;;;4.93;3.35;;;27.60;44.60;;;;;;5002121;28;46431;-55
2023/06/30 06:42:42;;;;;;;5.65;3.60;;;27.70;44.70;;;;;;5003484;28;45227;-56
2023/06/30 06:45:08;;;;;;;5.53;3.13;;;27.70;44.50;;;;;;4997280;28;45767;-56
2023/06/30 06:48:11;;;;;;;4.60;3.20;;;27.70;44.50;;;;;;5000485;28;45291;-57
2023/06/30 06:50:36;;;;;;;4.40;2.97;;;27.80;44.70;;;;;;4999921;28;46156;-56
2023/06/30 06:53:02;;;;;;;4.10;3.17;;;27.80;44.30;;;;;;5004940;28;45381;-54
2023/06/30 06:55:27;;;;;;;4.20;3.53;;;27.90;44.30;;;;;;4978917;28;45804;-56
2023/06/30 06:57:53;;;;;;;4.28;3.58;;;27.90;44.30;;;;;;5005349;28;46016;-56
2023/06/30 07:00:19;;;;;;;5.00;3.28;;;27.90;44.20;;;;;;4996206;28;46267;-63
2023/06/30 07:02:44;;;;;;;4.28;3.20;;;28.00;44.20;;;;;;4982353;28;45875;-55
2023/06/30 07:05:10;;;;;;;4.03;3.10;;;28.00;44.00;;;;;;5001236;28;45675;-56
2023/06/30 07:07:36;;;;;;;5.45;3.20;;;28.10;43.90;;;;;;5001094;28;45474;-54
2023/06/30 07:10:02;;;;;;;5.43;3.45;;;28.10;43.90;;;;;;5004462;28;46990;-59
2023/06/30 07:12:28;;;;;;;5.85;3.25;;;28.10;43.90;;;;;;4987424;28;45308;-55
2023/06/30 07:14:53;;;;;;;4.07;3.53;;;28.10;43.70;;;;;;5008418;28;45698;-54
2023/06/30 07:17:19;;;;;;;4.75;3.78;;;28.20;43.70;;;;;;4979890;28;45394;-55
2023/06/30 07:19:44;;;;;;;4.40;3.20;;;28.20;43.70;;;;;;5004369;28;47231;-53
2023/06/30 07:22:10;;;;;;;4.88;2.92;;;28.20;43.60;;;;;;5002022;28;45617;-55
2023/06/30 07:24:35;;;;;;;4.40;2.80;;;28.20;43.50;;;;;;5006063;28;45330;-55
2023/06/30 07:27:01;;;;;;;5.18;3.33;;;28.20;43.50;;;;;;5002929;28;45386;-53
2023/06/30 07:29:26;;;;;;;4.32;3.20;;;28.30;43.50;;;;;;5008017;28;46158;-52
2023/06/30 07:31:52;;;;;;;4.20;3.25;;;28.30;43.40;;;;;;4999730;28;46517;-52
2023/06/30 07:34:19;;;;;;;3.17;2.88;;;28.30;43.30;;;;;;5008291;28;44796;-53
2023/06/30 07:36:45;;;;;;;3.20;2.65;;;28.40;43.20;;;;;;5001728;28;45106;-51
2023/06/30 07:39:11;;;;;;;4.13;3.20;;;28.40;43.20;;;;;;5007143;28;45554;-59
2023/06/30 07:41:37;;;;;;;3.00;2.75;;;28.40;43.10;;;;;;5003060;28;45343;-56
2023/06/30 07:44:03;;;;;;;4.00;3.10;;;28.50;43.10;;;;;;5010406;28;45497;-57
2023/06/30 07:46:29;;;;;;;5.07;3.40;;;28.50;43.00;;;;;;5000211;28;45446;-58
2023/06/30 07:48:55;;;;;;;3.75;2.90;;;28.60;43.10;;;;;;5008381;28;46012;-55
2023/06/30 07:51:20;;;;;;;5.22;3.20;;;28.60;43.00;;;;;;5003400;28;45755;-55
2023/06/30 07:53:46;;;;;;;5.93;3.42;;;28.60;42.90;;;;;;4989321;28;45213;-57
2023/06/30 07:56:11;;;;;;;4.22;3.45;;;28.70;42.90;;;;;;5000871;28;45725;-56
2023/06/30 07:58:37;;;;;;;4.30;2.88;;;28.70;42.90;;;;;;4989706;28;48280;-56
2023/06/30 08:01:02;;;;;;;5.30;2.90;;;28.70;42.90;;;;;;4998730;28;45305;-56
2023/06/30 08:03:28;;;;;;;3.83;3.35;;;28.60;42.90;;;;;;4989851;28;45507;-54
2023/06/30 08:05:55;;;;;;;4.88;3.08;;;28.60;42.90;;;;;;4980860;28;45798;-56
2023/06/30 08:08:21;;;;;;;3.78;3.10;;;28.60;43.00;;;;;;4989520;28;45385;-57
2023/06/30 08:10:46;;;;;;;3.10;2.67;;;28.50;43.30;;;;;;5000564;28;46926;-55
2023/06/30 08:13:12;;;;;;;5.78;2.72;;;28.40;43.30;;;;;;5006875;28;44802;-56
2023/06/30 08:15:37;;;;;;;5.05;3.33;;;28.40;43.50;;;;;;4997904;28;45693;-54
2023/06/30 08:18:03;;;;;;;3.70;3.03;;;28.30;43.40;;;;;;5004222;28;46966;-54
2023/06/30 08:20:29;;;;;;;3.90;2.88;;;28.30;43.10;;;;;;5000025;28;45569;-55
2023/06/30 08:22:54;;;;;;;5.13;3.00;;;28.30;43.30;;;;;;5004650;28;45383;-55
2023/06/30 08:25:23;;;;;;;4.55;3.00;;;28.30;43.40;;;;;;5002776;28;45869;-57
2023/06/30 08:27:49;;;;;;;4.53;3.15;;;28.30;44.10;;;;;;5004855;28;46157;-58
2023/06/30 08:30:15;;;;;;;6.15;3.00;;;28.30;43.50;;;;;;5000118;28;45629;-54
2023/06/30 08:32:40;;;;;;;7.13;2.95;;;28.30;43.40;;;;;;5001909;28;45383;-59
2023/06/30 08:35:06;;;;;;;6.88;3.25;;;28.30;43.40;;;;;;5001881;28;45695;-60
2023/06/30 08:37:32;;;;;;;3.53;2.90;;;28.30;43.30;;;;;;5001925;28;46295;-54
2023/06/30 08:39:57;;;;;;;6.65;2.90;;;28.30;43.40;;;;;;4987951;28;44773;-56
2023/06/30 08:42:24;;;;;;;3.85;2.97;;;28.30;43.40;;;;;;5001734;28;46374;-57
2023/06/30 08:44:52;;;;;;;6.20;2.95;;;28.30;43.40;;;;;;4989894;28;45304;-56
2023/06/30 08:47:17;;;;;;;3.75;3.05;;;28.30;43.30;;;;;;4997905;28;46069;-54
2023/06/30 08:49:43;;;;;;;6.07;3.03;;;28.40;43.30;;;;;;4988817;28;45899;-53
2023/06/30 08:52:09;;;;;;;6.78;3.60;;;28.30;43.20;;;;;;4967285;28;45316;-56
2023/06/30 08:54:34;;;;;;;4.05;2.90;;;28.40;43.30;;;;;;5006460;28;46122;-54
2023/06/30 08:57:01;;;;;;;6.28;3.05;;;28.40;43.80;;;;;;4985586;28;46823;-56
2023/06/30 08:59:27;;;;;;;4.65;3.08;;;28.40;43.20;;;;;;5007569;28;45442;-52
2023/06/30 09:01:54;;;;;;;3.67;2.90;;;28.40;43.00;;;;;;4996434;28;45241;-57
2023/06/30 09:04:21;;;;;;;6.07;3.42;;;28.40;42.80;;;;;;4976167;28;44944;-56
2023/06/30 09:06:49;;;;;;;4.15;3.53;;;28.40;42.80;;;;;;4983780;28;46304;-54
2023/06/30 09:09:51;;;;;;;6.07;3.63;;;28.50;42.80;;;;;;5007739;28;45149;-55
2023/06/30 09:12:17;;;;;;;4.30;3.28;;;28.50;42.90;;;;;;4941297;28;45597;-56
2023/06/30 09:14:42;;;;;;;4.18;3.28;;;28.50;42.90;;;;;;4981049;28;45796;-56
2023/06/30 09:17:08;;;;;;;4.45;3.38;;;28.50;42.70;;;;;;4996487;28;46050;-55
2023/06/30 09:19:35;;;;;;;6.72;3.60;;;28.50;42.70;;;;;;4957400;28;45503;-55
2023/06/30 09:22:01;;;;;;;4.60;3.28;;;28.50;42.60;;;;;;4984190;28;45516;-56
2023/06/30 09:24:27;;;;;;;5.53;3.20;;;28.50;42.50;;;;;;5007799;28;44969;-56
2023/06/30 09:26:52;;;;;;;7.18;3.15;;;28.60;42.60;;;;;;5002057;28;45100;-57
2023/06/30 09:29:21;;;;;;;7.63;3.92;;;28.60;42.40;;;;;;5007083;28;45404;-55
2023/06/30 09:31:50;;;;;;;6.50;3.05;;;28.60;42.30;;;;;;4996820;28;46239;-55
2023/06/30 09:34:15;;;;;;;6.65;3.50;;;28.60;42.40;;;;;;4988276;28;45369;-55
2023/06/30 09:36:52;;;;;;;5.65;3.63;;;28.60;42.40;;;;;;4998485;28;46437;-56
2023/06/30 09:39:17;;;;;;;5.88;3.50;;;28.70;42.30;;;;;;4989736;28;45280;-55
2023/06/30 09:41:47;;;;;;;5.05;4.00;;;28.70;42.30;;;;;;4983964;28;45401;-56
2023/06/30 09:44:14;;;;;;;6.50;3.72;;;28.70;42.10;;;;;;5005436;28;45553;-55
2023/06/30 09:46:53;;;;;;;4.72;3.67;;;28.70;42.20;;;;;;4995177;28;46232;-57
2023/06/30 09:49:22;;;;;;;4.88;3.50;;;28.70;42.10;;;;;;5005937;28;46059;-56
2023/06/30 09:51:47;;;;;;;5.80;3.97;;;28.70;42.10;;;;;;4999096;28;45688;-58
2023/06/30 09:54:13;;;;;;;5.63;3.92;;;28.70;42.10;;;;;;4987963;28;46270;-55
2023/06/30 09:56:40;;;;;;;7.55;3.88;;;28.70;42.10;;;;;;4964354;28;46208;-56
2023/06/30 09:59:05;;;;;;;8.00;4.00;;;28.70;42.00;;;;;;5006650;28;45396;-57
2023/06/30 10:01:31;;;;;;;5.75;4.03;;;28.70;42.10;;;;;;4995817;28;46233;-56
2023/06/30 10:03:57;;;;;;;7.20;3.97;;;28.80;42.20;;;;;;5004653;28;46315;-56
2023/06/30 10:06:23;;;;;;;7.53;4.22;;;28.70;42.00;;;;;;4997239;28;46552;-56
2023/06/30 10:08:49;;;;;;;5.47;4.25;;;28.70;41.90;;;;;;4987814;28;45592;-57
2023/06/30 10:11:15;;;;;;;7.75;4.35;;;28.80;41.80;;;;;;5001139;28;45527;-57
2023/06/30 10:13:43;;;;;;;7.57;4.30;;;28.80;41.70;;;;;;4987745;28;45383;-54
2023/06/30 10:16:09;;;;;;;5.38;3.95;;;28.90;41.70;;;;;;4980561;28;46947;-57
2023/06/30 10:18:37;;;;;;;6.82;4.38;;;28.90;41.60;;;;;;4986096;28;46372;-56
2023/06/30 10:21:03;;;;;;;4.97;4.10;;;28.90;41.40;;;;;;4982399;28;45716;-58
2023/06/30 10:23:28;;;;;;;8.88;3.63;;;28.90;41.50;;;;;;4972761;28;45574;-55
2023/06/30 10:25:54;;;;;;;6.38;4.18;;;28.90;41.50;;;;;;4984403;28;46354;-56
2023/06/30 10:28:19;;;;;;;4.38;3.72;;;28.90;41.40;;;;;;4971515;28;45403;-57
2023/06/30 10:30:45;;;;;;;4.82;3.22;;;28.90;41.70;;;;;;4977851;28;45489;-57
2023/06/30 10:33:10;;;;;;;6.80;4.00;;;28.90;41.90;;;;;;4985526;28;45515;-56
2023/06/30 10:35:36;;;;;;;5.53;3.90;;;28.80;42.10;;;;;;4999378;28;46160;-57
2023/06/30 10:38:01;;;;;;;7.45;3.90;;;28.80;42.30;;;;;;4988979;28;45706;-57
2023/06/30 10:40:28;;;;;;;6.40;4.13;;;28.70;42.50;;;;;;4984978;28;45295;-60
2023/06/30 10:42:55;;;;;;;6.55;4.22;;;28.70;42.80;;;;;;5002840;28;45520;-59
2023/06/30 10:45:21;;;;;;;6.03;4.00;;;28.70;43.00;;;;;;5001737;28;46091;-55
2023/06/30 10:47:52;;;;;;;4.88;3.45;;;28.70;43.20;;;;;;4988296;28;45650;-57
2023/06/30 10:50:18;;;;;;;7.13;3.85;;;28.70;43.30;;;;;;5004186;28;45005;-57
2023/06/30 10:52:48;;;;;;;5.15;3.75;;;28.70;43.30;;;;;;4989446;28;44856;-58
2023/06/30 10:55:14;;;;;;;4.05;3.47;;;28.70;43.50;;;;;;4988014;28;45184;-56
2023/06/30 10:57:39;;;;;;;4.50;3.60;;;28.70;43.30;;;;;;4991958;28;45285;-58
2023/06/30 11:00:10;;;;;;;5.63;4.35;;;28.70;43.30;;;;;;5006321;28;44747;-59
2023/06/30 11:02:36;;;;;;;5.43;4.38;;;28.70;43.40;;;;;;4981224;28;45770;-58
2023/06/30 11:05:19;;;;;;;8.27;4.50;;;28.70;43.40;;;;;;5001804;28;45934;-59
2023/06/30 11:07:52;;;;;;;6.70;4.13;;;28.70;43.50;;;;;;5005403;28;45621;-56
2023/06/30 11:10:34;;;;;;;6.13;4.90;;;28.70;43.20;;;;;;5001594;28;45463;-57
2023/06/30 11:13:01;;;;;;;7.18;3.70;;;28.70;43.40;;;;;;4985820;28;45116;-56
2023/06/30 11:15:42;;;;;;;9.90;3.85;;;28.70;43.30;;;;;;4999244;28;47004;-55
2023/06/30 11:18:21;;;;;;;5.78;3.90;;;28.60;44.60;;;;;;5006059;28;45759;-57
2023/06/30 11:21:12;;;;;;;9.68;4.15;;;28.60;46.10;;;;;;4981508;28;46128;-57
2023/06/30 11:23:42;;;;;;;7.82;4.30;;;28.50;48.10;;;;;;5000441;28;44988;-57
2023/06/30 11:26:16;;;;;;;9.15;4.63;;;28.40;46.90;;;;;;4983550;28;49121;-57
2023/06/30 11:28:41;;;;;;;7.60;4.07;;;28.30;47.70;;;;;;5003503;28;45339;-58
2023/06/30 11:31:07;;;;;;;8.40;4.45;;;28.30;47.90;;;;;;4991840;28;45637;-58
2023/06/30 11:33:38;;;;;;;6.90;4.18;;;28.30;48.10;;;;;;5001803;28;45664;-59
2023/06/30 11:36:04;;;;;;;9.55;3.92;;;28.30;48.40;;;;;;4986224;28;46041;-59
2023/06/30 11:38:30;;;;;;;7.10;4.28;;;28.20;48.50;;;;;;4976629;28;45960;-57
2023/06/30 11:40:59;;;;;;;7.80;4.53;;;28.30;48.80;;;;;;4991379;28;46118;-57
2023/06/30 11:43:25;;;;;;;8.30;4.32;;;28.30;49.00;;;;;;4984854;28;45899;-57
2023/06/30 11:45:56;;;;;;;7.60;5.15;;;28.30;49.10;;;;;;4962204;28;46155;-56
2023/06/30 11:48:21;;;;;;;8.80;4.60;;;28.20;49.70;;;;;;4995447;28;46087;-57
2023/06/30 11:50:47;;;;;;;6.57;4.82;;;28.20;49.30;;;;;;4982523;28;45638;-57
2023/06/30 11:53:12;;;;;;;9.93;4.80;;;28.20;49.40;;;;;;5001589;28;45703;-56
2023/06/30 11:55:42;;;;;;;8.10;4.63;;;28.20;49.50;;;;;;4979646;28;46158;-58
2023/06/30 11:58:08;;;;;;;8.18;4.55;;;28.30;50.00;;;;;;4997992;28;45696;-57
2023/06/30 12:00:34;;;;;;;10.68;4.80;;;28.20;49.80;;;;;;4992521;28;45223;-57
2023/06/30 12:02:59;;;;;;;9.18;5.63;;;28.20;49.90;;;;;;4992343;28;46385;-56
2023/06/30 12:05:26;;;;;;;6.15;4.70;;;28.20;49.90;;;;;;4988667;28;45994;-57
2023/06/30 12:07:52;;;;;;;8.55;5.60;;;28.20;50.00;;;;;;4998697;28;46261;-56
2023/06/30 12:10:18;;;;;;;7.63;4.65;;;28.20;50.00;;;;;;4999078;28;45680;-60
2023/06/30 12:12:52;;;;;;;8.60;5.07;;;28.20;49.90;;;;;;4984979;28;45638;-59
2023/06/30 12:15:17;;;;;;;6.93;4.72;;;28.20;50.30;;;;;;4981481;28;46226;-57
2023/06/30 12:17:43;;;;;;;8.07;5.15;;;28.20;50.30;;;;;;4995500;28;45147;-59
2023/06/30 12:20:10;;;;;;;8.30;5.30;;;28.20;50.40;;;;;;4980433;28;45801;-58
2023/06/30 12:22:38;;;;;;;7.00;4.70;;;28.20;50.10;;;;;;5002314;28;46025;-57
2023/06/30 12:25:07;;;;;;;10.65;4.93;;;28.20;50.00;;;;;;4998560;28;45514;-61
2023/06/30 12:27:34;;;;;;;6.57;4.65;;;28.30;50.20;;;;;;4972233;28;46282;-62
2023/06/30 12:30:00;;;;;;;6.28;4.53;;;28.30;49.90;;;;;;4991163;28;45088;-61
2023/06/30 12:32:27;;;;;;;7.10;5.32;;;28.30;49.80;;;;;;4994446;28;45779;-62
2023/06/30 12:35:00;;;;;;;10.35;4.97;;;28.40;49.70;;;;;;4987767;28;45696;-64
2023/06/30 12:37:29;;;;;;;5.68;4.47;;;28.40;49.80;;;;;;5000358;28;45638;-61
2023/06/30 12:39:58;;;;;;;6.60;4.60;;;28.40;49.50;;;;;;5005551;28;46133;-63
2023/06/30 12:42:27;;;;;;;11.18;4.55;;;28.40;49.50;;;;;;4996033;28;45270;-62
2023/06/30 12:44:52;;;;;;;8.50;4.80;;;28.40;49.40;;;;;;4995714;28;46922;-62
2023/06/30 12:47:18;;;;;;;9.55;5.45;;;28.40;49.40;;;;;;4992288;28;45505;-63
2023/06/30 12:49:44;;;;;;;5.80;4.70;;;28.50;49.40;;;;;;5002442;28;45291;-63
2023/06/30 12:52:10;;;;;;;8.07;5.40;;;28.50;49.20;;;;;;4994905;28;45406;-65
2023/06/30 12:54:35;;;;;;;6.97;4.75;;;28.50;49.20;;;;;;4985204;28;46135;-64
2023/06/30 12:57:01;;;;;;;7.20;4.88;;;28.50;49.10;;;;;;4996957;28;45106;-62
2023/06/30 12:59:26;;;;;;;6.05;4.45;;;28.50;49.00;;;;;;4988044;28;45339;-63
2023/06/30 13:01:52;;;;;;;8.30;4.57;;;28.50;48.70;;;;;;4978030;28;46264;-62
2023/06/30 13:04:18;;;;;;;6.35;4.18;;;28.50;48.60;;;;;;5003075;28;45644;-61
2023/06/30 13:06:43;;;;;;;5.55;4.03;;;28.50;48.70;;;;;;4979866;28;45465;-62
2023/06/30 13:09:09;;;;;;;11.15;4.55;;;28.60;48.60;;;;;;4987962;28;45612;-63
2023/06/30 13:11:35;;;;;;;5.20;3.95;;;28.50;48.70;;;;;;4996352;28;45774;-62
2023/06/30 13:14:01;;;;;;;5.93;4.00;;;28.50;48.40;;;;;;4968420;28;45436;-62
2023/06/30 13:16:26;;;;;;;6.65;4.53;;;28.50;48.40;;;;;;4992156;28;45725;-63
2023/06/30 13:18:52;;;;;;;5.55;4.30;;;28.50;48.40;;;;;;4985279;28;45426;-62
2023/06/30 13:21:18;;;;;;;6.75;5.05;;;28.60;48.40;;;;;;4979685;28;45576;-63
2023/06/30 13:23:43;;;;;;;6.57;5.03;;;28.60;48.30;;;;;;4970996;28;46870;-62
2023/06/30 13:26:09;;;;;;;6.55;4.43;;;28.60;48.30;;;;;;4995296;28;45724;-62
2023/06/30 13:28:35;;;;;;;6.45;4.30;;;28.60;48.20;;;;;;5001884;28;46123;-62
2023/06/30 13:31:04;;;;;;;7.03;5.03;;;28.60;48.10;;;;;;4989890;28;45577;-62
2023/06/30 13:33:29;;;;;;;5.50;4.30;;;28.60;48.10;;;;;;4983408;28;47367;-62
2023/06/30 13:35:55;;;;;;;6.57;4.45;;;28.60;48.00;;;;;;4978627;28;45476;-63
2023/06/30 13:38:20;;;;;;;5.57;4.35;;;28.60;48.00;;;;;;4982960;28;45793;-62
2023/06/30 13:40:46;;;;;;;5.43;4.35;;;28.60;47.90;;;;;;4995926;28;45663;-62
2023/06/30 13:43:12;;;;;;;6.40;4.00;;;28.60;47.90;;;;;;5000110;28;45262;-62
2023/06/30 13:45:37;;;;;;;5.20;4.32;;;28.60;47.80;;;;;;4987373;28;45496;-63
2023/06/30 13:48:06;;;;;;;6.97;4.57;;;28.60;47.80;;;;;;4996147;28;45123;-63
2023/06/30 13:50:32;;;;;;;6.53;4.18;;;28.60;47.70;;;;;;4994014;28;45999;-62
2023/06/30 13:52:58;;;;;;;6.50;4.60;;;28.60;47.70;;;;;;4983828;28;45784;-63
2023/06/30 13:55:24;;;;;;;5.82;4.43;;;28.60;47.60;;;;;;4977428;28;45291;-62
2023/06/30 13:57:51;;;;;;;5.93;4.35;;;28.60;47.60;;;;;;5002393;28;46246;-62
2023/06/30 14:00:18;;;;;;;5.82;4.47;;;28.60;47.60;;;;;;4960274;28;46264;-62
2023/06/30 14:02:43;;;;;;;5.85;4.45;;;28.60;47.60;;;;;;4982306;28;45723;-63
2023/06/30 14:05:09;;;;;;;7.13;3.97;;;28.70;47.50;;;;;;4994491;28;45793;-62
2023/06/30 14:07:35;;;;;;;4.85;3.60;;;28.70;47.40;;;;;;4983695;28;45668;-63
2023/06/30 14:10:03;;;;;;;6.28;3.17;;;28.70;47.40;;;;;;5000465;28;45279;-62
2023/06/30 14:12:29;;;;;;;6.60;4.65;;;28.70;47.40;;;;;;4981964;28;45568;-63
2023/06/30 14:14:54;;;;;;;5.35;3.78;;;28.70;47.30;;;;;;4997553;28;45302;-62
2023/06/30 14:17:20;;;;;;;6.32;4.15;;;28.70;47.30;;;;;;4957715;28;46075;-63
2023/06/30 14:19:45;;;;;;;5.60;3.78;;;28.70;47.30;;;;;;5004344;28;45739;-63
2023/06/30 14:22:11;;;;;;;6.55;3.97;;;28.70;47.20;;;;;;4998680;28;45320;-63
2023/06/30 14:24:36;;;;;;;5.95;4.07;;;28.70;47.20;;;;;;5005255;28;46132;-63
2023/06/30 14:27:02;;;;;;;5.07;3.92;;;28.70;47.10;;;;;;4997935;28;45737;-62
2023/06/30 14:29:27;;;;;;;8.02;4.88;;;28.70;47.10;;;;;;5005550;28;45724;-63
2023/06/30 14:31:53;;;;;;;4.93;4.03;;;28.80;47.10;;;;;;4993299;28;46521;-63
2023/06/30 14:34:19;;;;;;;8.43;4.20;;;28.70;47.00;;;;;;5003654;28;45518;-63
2023/06/30 14:36:44;;;;;;;5.97;4.10;;;28.70;46.90;;;;;;4989962;28;45429;-63
2023/06/30 14:39:10;;;;;;;5.50;3.80;;;28.70;46.90;;;;;;5000878;28;45972;-63
2023/06/30 14:41:36;;;;;;;5.63;4.38;;;28.70;46.80;;;;;;4975461;28;46665;-63
2023/06/30 14:44:02;;;;;;;6.03;4.03;;;28.70;46.90;;;;;;5002787;28;45630;-64
2023/06/30 14:46:28;;;;;;;4.75;4.03;;;28.80;46.80;;;;;;4993747;28;44692;-64
2023/06/30 14:48:54;;;;;;;7.32;4.68;;;28.70;46.70;;;;;;5003059;28;45803;-64
2023/06/30 14:51:20;;;;;;;5.10;3.50;;;28.80;46.80;;;;;;4981675;28;46139;-62
2023/06/30 14:53:45;;;;;;;5.28;3.72;;;28.80;46.70;;;;;;5004579;28;46050;-62
2023/06/30 14:56:11;;;;;;;5.75;3.95;;;28.70;46.70;;;;;;4979554;28;46136;-64
2023/06/30 14:58:36;;;;;;;5.03;3.85;;;28.80;46.70;;;;;;4970649;28;45726;-63
2023/06/30 15:01:02;;;;;;;4.35;3.67;;;28.80;46.70;;;;;;4991642;28;46351;-63
2023/06/30 15:03:27;;;;;;;7.25;4.20;;;28.80;46.60;;;;;;4985584;28;45802;-61
2023/06/30 15:05:53;;;;;;;6.13;4.35;;;28.80;46.60;;;;;;4980688;28;45807;-62
2023/06/30 15:08:18;;;;;;;5.72;4.50;;;28.80;46.60;;;;;;5001310;28;46271;-62
2023/06/30 15:10:44;;;;;;;5.18;3.92;;;28.80;46.60;;;;;;4997110;28;46317;-62
2023/06/30 15:13:10;;;;;;;5.45;4.13;;;28.80;46.60;;;;;;5003109;28;46231;-63
2023/06/30 15:15:35;;;;;;;5.45;3.83;;;28.80;46.50;;;;;;4994353;28;45273;-63
2023/06/30 15:18:01;;;;;;;5.20;3.38;;;28.80;46.50;;;;;;4999862;28;46435;-63
2023/06/30 15:20:27;;;;;;;5.45;3.65;;;28.80;46.50;;;;;;4996644;28;45706;-64
2023/06/30 15:22:52;;;;;;;5.30;3.83;;;28.80;46.40;;;;;;5002764;28;45632;-65
2023/06/30 15:25:25;;;;;;;4.18;3.75;;;28.80;46.40;;;;;;4966867;28;45196;-62
2023/06/30 15:27:51;;;;;;;6.35;4.15;;;28.80;46.40;;;;;;4986065;28;46231;-64
2023/06/30 15:30:17;;;;;;;5.45;3.72;;;28.80;46.40;;;;;;4977780;28;45803;-63
2023/06/30 15:32:43;;;;;;;4.97;4.07;;;28.80;46.30;;;;;;4981417;28;45523;-63
2023/06/30 15:35:08;;;;;;;5.60;4.60;;;28.80;46.30;;;;;;4997786;28;45661;-63
2023/06/30 15:37:34;;;;;;;4.63;3.92;;;28.80;46.20;;;;;;4967381;28;44728;-64
2023/06/30 15:40:00;;;;;;;5.05;3.75;;;28.80;46.20;;;;;;4987886;28;45588;-63
2023/06/30 15:42:25;;;;;;;4.88;4.03;;;28.90;46.30;;;;;;4998314;28;45538;-62
2023/06/30 15:44:51;;;;;;;5.15;4.00;;;28.80;46.20;;;;;;4988288;28;45519;-62